createdAt,value
2022-08-08T00:00:56.638Z,100942.03
2022-08-08T00:02:33.584Z,100940.44
2022-08-08T00:04:49.453Z,100945.53
2022-08-08T00:07:15.614Z,100939.81
2022-08-08T00:09:24.516Z,100936.50
2022-08-08T00:12:02.822Z,100936.50
2022-08-08T00:14:16.497Z,100940.44
2022-08-08T00:16:37.415Z,100941.19
2022-08-08T00:18:49.460Z,100939.53
2022-08-08T00:20:53.995Z,100940.28
2022-08-08T00:23:02.552Z,100939.06
2022-08-08T00:25:13.420Z,100938.25
2022-08-08T00:27:18.342Z,100937.75
2022-08-08T00:29:44.854Z,100940.41
2022-08-08T00:32:32.546Z,100941.00
2022-08-08T00:34:46.147Z,100934.69
2022-08-08T00:37:03.688Z,100945.25
2022-08-08T00:41:07.924Z,100943.63
2022-08-08T00:42:08.837Z,100947.25
2022-08-08T00:44:36.276Z,100945.91
2022-08-08T00:47:36.830Z,100942.75
2022-08-08T00:50:32.737Z,100945.41
2022-08-08T00:52:48.897Z,100942.94
2022-08-08T00:55:52.354Z,100944.91
2022-08-08T00:58:16.477Z,100939.84
2022-08-08T01:00:22.209Z,100944.13
2022-08-08T01:03:57.546Z,100942.16
2022-08-08T01:06:02.291Z,100936.97
2022-08-08T01:08:46.674Z,100942.66
2022-08-08T01:11:21.740Z,100943.50
2022-08-08T01:14:16.548Z,100943.03
2022-08-08T01:16:51.128Z,100951.84
2022-08-08T01:19:51.982Z,100949.63
2022-08-08T01:22:23.366Z,100951.59
2022-08-08T01:24:43.642Z,100949.56
2022-08-08T01:27:16.166Z,100958.41
2022-08-08T01:29:58.639Z,100955.78
2022-08-08T01:32:34.668Z,100956.81
2022-08-08T01:34:57.137Z,100952.34
2022-08-08T01:37:58.302Z,100953.19
2022-08-08T01:40:14.646Z,100945.13
2022-08-08T01:42:36.313Z,100945.19
2022-08-08T01:44:54.915Z,100949.81
2022-08-08T01:48:16.014Z,100946.47
2022-08-08T01:49:48.701Z,100955.91
2022-08-08T01:52:27.974Z,100949.03
2022-08-08T01:55:18.789Z,100948.72
2022-08-08T01:57:10.727Z,100952.91
2022-08-08T02:00:02.041Z,100959.13
2022-08-08T02:02:10.081Z,100961.09
2022-08-08T02:04:37.352Z,100966.16
2022-08-08T02:06:57.208Z,100962.31
2022-08-08T02:09:03.435Z,100971.00
2022-08-08T02:12:00.174Z,100960.69
2022-08-08T02:13:57.563Z,100959.75
2022-08-08T02:16:10.063Z,100963.09
2022-08-08T02:18:36.379Z,100957.81
2022-08-08T02:21:00.595Z,100965.16
2022-08-08T02:23:20.489Z,100974.41
2022-08-08T02:25:43.529Z,100964.56
2022-08-08T02:27:58.089Z,100966.66
2022-08-08T02:30:07.793Z,100966.13
2022-08-08T02:32:37.330Z,100962.75
2022-08-08T02:35:10.467Z,100969.59
2022-08-08T02:37:53.146Z,100967.56
2022-08-08T02:39:58.435Z,100965.63
2022-08-08T02:42:35.900Z,100968.88
2022-08-08T02:45:09.669Z,100964.63
2022-08-08T02:48:03.270Z,100966.28
2022-08-08T02:51:11.731Z,100971.22
2022-08-08T02:53:26.940Z,100971.22
2022-08-08T02:56:03.258Z,100973.28
2022-08-08T02:59:01.758Z,100974.44
2022-08-08T03:01:47.184Z,100972.91
2022-08-08T03:05:02.469Z,100978.56
2022-08-08T03:07:41.917Z,100972.13
2022-08-08T03:10:37.862Z,100967.00
2022-08-08T03:15:53.519Z,100970.38
2022-08-08T03:16:10.327Z,100975.53
2022-08-08T03:18:30.800Z,100973.44
2022-08-08T03:20:51.589Z,100980.94
2022-08-08T03:22:56.671Z,100978.13
2022-08-08T03:25:00.883Z,100993.31
2022-08-08T03:27:13.045Z,100986.28
2022-08-08T03:29:26.642Z,100994.47
2022-08-08T03:32:05.846Z,100988.59
2022-08-08T03:34:03.793Z,100996.47
2022-08-08T03:36:10.513Z,100995.75
2022-08-08T03:38:57.942Z,100997.66
2022-08-08T03:40:36.953Z,100991.19
2022-08-08T03:42:39.227Z,101003.31
2022-08-08T03:44:52.107Z,100996.13
2022-08-08T03:46:54.164Z,100996.13
2022-08-08T03:49:30.873Z,100996.41
2022-08-08T03:51:19.372Z,101004.22
2022-08-08T03:53:42.354Z,100999.97
2022-08-08T03:55:56.067Z,101000.75
2022-08-08T03:58:35.586Z,101002.19
2022-08-08T04:00:25.828Z,101000.69
2022-08-08T04:02:33.314Z,100998.53
2022-08-08T04:04:38.497Z,101001.63
2022-08-08T04:06:40.174Z,101003.94
2022-08-08T04:08:46.046Z,101007.00
2022-08-08T04:10:48.945Z,101004.03
2022-08-08T04:13:17.215Z,100999.31
2022-08-08T04:15:22.344Z,101001.78
2022-08-08T04:17:46.441Z,101004.63
2022-08-08T04:19:45.646Z,101010.47
2022-08-08T04:21:47.646Z,101017.22
2022-08-08T04:24:05.679Z,101012.25
2022-08-08T04:26:16.096Z,101018.31
2022-08-08T04:28:36.167Z,101020.91
2022-08-08T04:30:44.278Z,101018.25
2022-08-08T04:32:50.445Z,101023.16
2022-08-08T04:34:58.589Z,101019.84
2022-08-08T04:37:00.989Z,101025.25
2022-08-08T04:40:04.620Z,101028.88
2022-08-08T04:41:36.690Z,101030.25
2022-08-08T04:43:45.415Z,101030.75
2022-08-08T04:45:49.467Z,101036.25
2022-08-08T04:47:51.119Z,101035.25
2022-08-08T04:50:00.538Z,101043.84
2022-08-08T04:52:04.148Z,101049.78
2022-08-08T04:54:38.812Z,101054.13
2022-08-08T04:56:30.839Z,101050.28
2022-08-08T04:58:33.647Z,101056.94
2022-08-08T05:00:35.271Z,101056.84
2022-08-08T05:02:37.252Z,101057.72
2022-08-08T05:04:44.470Z,101062.63
2022-08-08T05:06:46.597Z,101061.91
2022-08-08T05:08:51.676Z,101060.78
2022-08-08T05:10:55.041Z,101068.31
2022-08-08T05:13:02.227Z,101072.69
2022-08-08T05:15:05.262Z,101073.13
2022-08-08T05:17:09.086Z,101068.09
2022-08-08T05:20:11.421Z,101065.78
2022-08-08T05:21:43.795Z,101067.16
2022-08-08T05:24:04.208Z,101072.31
2022-08-08T05:26:14.081Z,101073.56
2022-08-08T05:28:16.149Z,101072.31
2022-08-08T05:30:38.020Z,101080.44
2022-08-08T05:32:40.343Z,101079.66
2022-08-08T05:34:46.388Z,101081.69
2022-08-08T05:36:49.679Z,101079.84
2022-08-08T05:38:53.568Z,101080.41
2022-08-08T05:40:58.314Z,101082.25
2022-08-08T05:43:38.512Z,101088.41
2022-08-08T05:45:41.596Z,101080.97
2022-08-08T05:48:00.093Z,101089.78
2022-08-08T05:50:03.815Z,101093.31
2022-08-08T05:52:06.306Z,101097.56
2022-08-08T05:54:28.688Z,101102.50
2022-08-08T05:59:04.416Z,101107.91
2022-08-08T06:01:08.650Z,101113.03
2022-08-08T06:03:24.980Z,101106.25
2022-08-08T06:05:35.199Z,101109.09
2022-08-08T06:07:39.842Z,101105.13
2022-08-08T06:10:00.922Z,101106.50
2022-08-08T06:12:04.763Z,101102.25
2022-08-08T06:14:12.857Z,101111.84
2022-08-08T06:16:27.574Z,101112.88
2022-08-08T06:18:32.108Z,101115.72
2022-08-08T06:20:34.308Z,101123.41
2022-08-08T06:22:36.193Z,101126.75
2022-08-08T06:24:37.810Z,101123.22
2022-08-08T06:26:52.603Z,101125.25
2022-08-08T06:29:02.475Z,101125.09
2022-08-08T06:31:09.824Z,101128.72
2022-08-08T06:33:36.809Z,101132.06
2022-08-08T06:36:06.512Z,101129.31
2022-08-08T06:38:14.059Z,101127.88
2022-08-08T06:40:16.927Z,101134.19
2022-08-08T06:42:19.203Z,101134.03
2022-08-08T06:44:23.316Z,101138.38
2022-08-08T06:46:30.047Z,101139.63
2022-08-08T06:48:32.910Z,101137.75
2022-08-08T06:50:38.682Z,101132.88
2022-08-08T06:52:42.870Z,101138.09
2022-08-08T06:54:48.839Z,101132.38
2022-08-08T06:56:52.757Z,101132.38
2022-08-08T06:58:54.604Z,101144.56
2022-08-08T07:00:56.842Z,101139.78
2022-08-08T07:03:07.271Z,101143.09
2022-08-08T07:05:14.087Z,101148.25
2022-08-08T07:07:33.491Z,101144.03
2022-08-08T07:09:59.765Z,101150.78
2022-08-08T07:12:07.350Z,101149.91
2022-08-08T07:14:17.480Z,101159.19
2022-08-08T07:16:27.344Z,101151.84
2022-08-08T07:18:42.929Z,101157.81
2022-08-08T07:20:50.772Z,101166.38
2022-08-08T07:23:01.255Z,101158.75
2022-08-08T07:25:06.879Z,101155.72
2022-08-08T07:27:12.341Z,101160.56
2022-08-08T07:29:59.949Z,101157.63
2022-08-08T07:31:41.158Z,101154.75
2022-08-08T07:33:53.254Z,101153.41
2022-08-08T07:36:02.450Z,101149.69
2022-08-08T07:38:18.407Z,101151.47
2022-08-08T07:40:29.839Z,101146.78
2022-08-08T07:42:36.929Z,101148.44
2022-08-08T07:44:43.460Z,101152.84
2022-08-08T07:46:45.707Z,101159.59
2022-08-08T07:48:48.694Z,101160.81
2022-08-08T07:50:52.824Z,101161.72
2022-08-08T07:52:59.389Z,101168.78
2022-08-08T07:55:06.393Z,101165.66
2022-08-08T07:57:19.993Z,101163.63
2022-08-08T07:59:25.064Z,101163.97
2022-08-08T08:02:33.153Z,101166.25
2022-08-08T08:03:57.695Z,101165.25
2022-08-08T08:06:03.679Z,101168.63
2022-08-08T08:08:07.741Z,101168.69
2022-08-08T08:10:12.328Z,101166.75
2022-08-08T08:12:31.889Z,101168.69
2022-08-08T08:14:52.695Z,101165.34
2022-08-08T08:16:55.575Z,101167.84
2022-08-08T08:19:02.862Z,101168.41
2022-08-08T08:21:13.368Z,101170.00
2022-08-08T08:23:20.477Z,101167.97
2022-08-08T08:25:43.056Z,101175.50
2022-08-08T08:27:48.380Z,101174.00
2022-08-08T08:29:53.170Z,101162.19
2022-08-08T08:31:57.267Z,101165.44
2022-08-08T08:34:00.622Z,101159.19
2022-08-08T08:36:21.077Z,101159.94
2022-08-08T08:38:23.689Z,101163.59
2022-08-08T08:40:26.264Z,101166.41
2022-08-08T08:42:35.272Z,101158.53
2022-08-08T08:44:39.447Z,101157.00
2022-08-08T08:46:47.235Z,101165.31
2022-08-08T08:48:50.099Z,101160.47
2022-08-08T08:50:55.242Z,101160.13
2022-08-08T08:53:04.685Z,101162.94
2022-08-08T08:55:21.746Z,101157.00
2022-08-08T08:57:31.556Z,101157.88
2022-08-08T09:00:01.911Z,101159.06
2022-08-08T09:02:08.457Z,101153.06
2022-08-08T09:04:30.858Z,101152.66
2022-08-08T09:06:44.858Z,101155.47
2022-08-08T09:08:56.599Z,101157.81
2022-08-08T09:10:58.776Z,101153.94
2022-08-08T09:13:02.104Z,101157.19
2022-08-08T09:15:06.114Z,101169.13
2022-08-08T09:17:12.875Z,101158.09
2022-08-08T09:19:33.944Z,101151.03
2022-08-08T09:21:58.130Z,101153.06
2022-08-08T09:24:04.040Z,101155.53
2022-08-08T09:26:12.490Z,101150.41
2022-08-08T09:28:35.203Z,101152.78
2022-08-08T09:30:41.980Z,101152.78
2022-08-08T09:33:11.828Z,101152.00
2022-08-08T09:35:09.563Z,101150.41
2022-08-08T09:37:39.428Z,101153.56
2022-08-08T09:39:59.577Z,101151.19
2022-08-08T09:42:20.764Z,101141.72
2022-08-08T09:44:34.360Z,101144.22
2022-08-08T09:46:38.984Z,101145.00
2022-08-08T09:48:49.948Z,101143.84
2022-08-08T09:50:56.198Z,101135.22
2022-08-08T09:53:14.387Z,101137.63
2022-08-08T09:55:51.447Z,101141.56
2022-08-08T09:57:55.779Z,101137.25
2022-08-08T10:00:35.783Z,101130.53
2022-08-08T10:02:23.340Z,101131.31
2022-08-08T10:04:38.487Z,101123.84
2022-08-08T10:06:44.943Z,101124.66
2022-08-08T10:08:50.742Z,101124.66
2022-08-08T10:10:58.625Z,101123.06
2022-08-08T10:13:14.126Z,101117.94
2022-08-08T10:15:18.300Z,101126.28
2022-08-08T10:17:56.900Z,101120.81
2022-08-08T10:19:46.154Z,101118.47
2022-08-08T10:22:00.616Z,101118.06
2022-08-08T10:24:28.226Z,101118.06
2022-08-08T10:26:57.173Z,101114.13
2022-08-08T10:28:55.924Z,101113.75
2022-08-08T10:31:01.725Z,101114.22
2022-08-08T10:33:08.480Z,101105.50
2022-08-08T10:35:20.170Z,101111.84
2022-08-08T10:37:38.251Z,101104.28
2022-08-08T10:39:54.366Z,101101.94
2022-08-08T10:42:15.290Z,101104.41
2022-08-08T10:44:24.348Z,101095.69
2022-08-08T10:46:29.883Z,101096.09
2022-08-08T10:48:37.353Z,101089.78
2022-08-08T10:50:54.984Z,101090.22
2022-08-08T10:53:01.543Z,101083.50
2022-08-08T10:55:06.814Z,101080.72
2022-08-08T10:57:08.931Z,101087.44
2022-08-08T10:59:14.253Z,101077.56
2022-08-08T11:01:18.530Z,101089.41
2022-08-08T11:03:37.147Z,101095.38
2022-08-08T11:05:51.667Z,101088.63
2022-08-08T11:08:37.271Z,101091.09
2022-08-08T11:10:29.010Z,101090.34
2022-08-08T11:12:32.542Z,101087.59
2022-08-08T11:14:49.454Z,101090.00
2022-08-08T11:16:51.686Z,101091.97
2022-08-08T11:18:54.761Z,101080.50
2022-08-08T11:21:00.386Z,101082.47
2022-08-08T11:23:05.564Z,101083.25
2022-08-08T11:25:14.266Z,101078.50
2022-08-08T11:27:23.759Z,101071.78
2022-08-08T11:29:50.739Z,101082.88
2022-08-08T11:31:56.382Z,101079.31
2022-08-08T11:34:03.127Z,101073.38
2022-08-08T11:36:05.921Z,101077.41
2022-08-08T11:38:38.561Z,101069.53
2022-08-08T11:40:32.222Z,101072.72
2022-08-08T11:42:36.954Z,101059.69
2022-08-08T11:44:41.033Z,101063.22
2022-08-08T11:46:42.707Z,101060.88
2022-08-08T11:48:47.381Z,101061.22
2022-08-08T11:50:52.595Z,101058.81
2022-08-08T11:52:56.307Z,101058.03
2022-08-08T11:55:00.582Z,101054.84
2022-08-08T11:57:14.087Z,101048.53
2022-08-08T11:59:19.910Z,101058.81
2022-08-08T12:01:41.502Z,101053.72
2022-08-08T12:03:45.801Z,101043.44
2022-08-08T12:05:48.787Z,101046.63
2022-08-08T12:07:52.570Z,101041.47
2022-08-08T12:09:56.868Z,101039.88
2022-08-08T12:12:04.133Z,101040.28
2022-08-08T12:14:07.778Z,101046.28
2022-08-08T12:16:16.647Z,101032.00
2022-08-08T12:18:21.382Z,101028.00
2022-08-08T12:20:24.346Z,101030.28
2022-08-08T12:22:32.741Z,101027.56
2022-08-08T12:24:51.322Z,101027.81
2022-08-08T12:26:58.411Z,101019.84
2022-08-08T12:29:00.629Z,101024.16
2022-08-08T12:31:06.051Z,101017.09
2022-08-08T12:33:20.844Z,101006.81
2022-08-08T12:35:23.329Z,101012.38
2022-08-08T12:37:40.007Z,101006.59
2022-08-08T12:40:00.675Z,101016.25
2022-08-08T12:42:04.824Z,101006.69
2022-08-08T12:44:10.741Z,101003.09
2022-08-08T12:46:19.040Z,101004.00
2022-08-08T12:48:36.530Z,101004.66
2022-08-08T12:50:42.073Z,101012.16
2022-08-08T12:52:53.668Z,101002.38
2022-08-08T12:55:02.704Z,100995.13
2022-08-08T12:57:17.296Z,100991.44
2022-08-08T12:59:36.415Z,100988.50
2022-08-08T13:01:54.126Z,100990.31
2022-08-08T13:03:57.202Z,100990.41
2022-08-08T13:06:13.291Z,100990.03
2022-08-08T13:08:16.817Z,100995.53
2022-08-08T13:10:18.667Z,100990.97
2022-08-08T13:12:29.085Z,100991.94
2022-08-08T13:14:39.682Z,100984.63
2022-08-08T13:16:59.399Z,100987.38
2022-08-08T13:19:07.932Z,100971.34
2022-08-08T13:21:14.272Z,100972.44
2022-08-08T13:23:36.398Z,100987.59
2022-08-08T13:25:40.635Z,100982.59
2022-08-08T13:27:43.301Z,100981.63
2022-08-08T13:29:50.441Z,100973.41
2022-08-08T13:31:52.427Z,100971.25
2022-08-08T13:33:54.489Z,100961.25
2022-08-08T13:35:57.928Z,100970.38
2022-08-08T13:38:06.492Z,100963.34
2022-08-08T13:40:10.854Z,100963.91
2022-08-08T13:42:12.501Z,100962.00
2022-08-08T13:44:19.485Z,100968.38
2022-08-08T13:46:26.299Z,100962.22
2022-08-08T13:48:29.238Z,100959.06
2022-08-08T13:50:43.095Z,100954.94
2022-08-08T13:52:55.237Z,100961.03
2022-08-08T13:54:58.806Z,100962.56
2022-08-08T13:57:02.505Z,100950.41
2022-08-08T13:59:05.032Z,100954.25
2022-08-08T14:01:16.136Z,100954.94
2022-08-08T14:03:53.083Z,100950.75
2022-08-08T14:05:58.847Z,100944.72
2022-08-08T14:08:06.432Z,100944.78
2022-08-08T14:10:33.675Z,100946.94
2022-08-08T14:12:43.680Z,100942.56
2022-08-08T14:14:47.022Z,100939.09
2022-08-08T14:16:49.879Z,100944.44
2022-08-08T14:18:54.127Z,100947.63
2022-08-08T14:21:02.438Z,100937.88
2022-08-08T14:23:10.289Z,100940.97
2022-08-08T14:25:22.824Z,100936.69
2022-08-08T14:27:29.007Z,100953.03
2022-08-08T14:29:31.070Z,100942.00
2022-08-08T14:32:10.720Z,100948.28
2022-08-08T14:34:19.390Z,100944.00
2022-08-08T14:36:33.194Z,100935.09
2022-08-08T14:38:53.007Z,100951.72
2022-08-08T14:41:10.334Z,100932.25
2022-08-08T14:43:31.776Z,100939.31
2022-08-08T14:46:02.038Z,100929.56
2022-08-08T14:47:57.789Z,100933.41
2022-08-08T14:50:15.128Z,100931.88
2022-08-08T14:52:24.332Z,100927.81
2022-08-08T14:54:29.442Z,100928.97
2022-08-08T14:56:32.160Z,100925.91
2022-08-08T14:58:35.201Z,100920.38
2022-08-08T15:00:36.805Z,100930.56
2022-08-08T15:02:58.748Z,100927.22
2022-08-08T15:05:11.500Z,100917.69
2022-08-08T15:07:24.482Z,100920.53
2022-08-08T15:09:36.581Z,100923.53
2022-08-08T15:11:45.993Z,100921.13
2022-08-08T15:14:03.041Z,100928.16
2022-08-08T15:16:05.376Z,100921.00
2022-08-08T15:18:07.602Z,100916.00
2022-08-08T15:20:14.519Z,100914.19
2022-08-08T15:22:17.900Z,100917.59
2022-08-08T15:24:31.398Z,100924.34
2022-08-08T15:26:34.875Z,100916.59
2022-08-08T15:28:36.766Z,100918.03
2022-08-08T15:30:38.590Z,100920.25
2022-08-08T15:32:40.565Z,100918.88
2022-08-08T15:34:45.115Z,100921.63
2022-08-08T15:36:46.737Z,100922.47
2022-08-08T15:38:50.250Z,100926.38
2022-08-08T15:40:52.541Z,100920.75
2022-08-08T15:42:55.686Z,100925.25
2022-08-08T15:44:57.265Z,100926.22
2022-08-08T15:46:58.871Z,100931.03
2022-08-08T15:49:04.190Z,100926.53
2022-08-08T15:51:07.047Z,100928.50
2022-08-08T15:53:08.896Z,100923.47
2022-08-08T15:55:12.960Z,100928.78
2022-08-08T15:57:15.435Z,100934.34
2022-08-08T15:59:19.014Z,100924.47
2022-08-08T16:01:22.496Z,100918.16
2022-08-08T16:03:24.315Z,100928.06
2022-08-08T16:05:35.820Z,100923.66
2022-08-08T16:07:52.686Z,100926.84
2022-08-08T16:13:09.542Z,100924.84
2022-08-08T16:13:14.029Z,100923.66
2022-08-08T16:14:40.036Z,100923.66
2022-08-08T16:16:55.189Z,100918.50
2022-08-08T16:18:58.264Z,100916.09
2022-08-08T16:21:02.518Z,100920.56
2022-08-08T16:23:05.273Z,100916.63
2022-08-08T16:25:13.147Z,100920.19
2022-08-08T16:27:18.016Z,100913.81
2022-08-08T16:29:37.154Z,100916.63
2022-08-08T16:31:48.494Z,100903.50
2022-08-08T16:33:58.240Z,100908.66
2022-08-08T16:36:01.109Z,100907.50
2022-08-08T16:38:03.241Z,100922.97
2022-08-08T16:40:07.349Z,100919.38
2022-08-08T16:42:17.975Z,100907.09
2022-08-08T16:44:28.072Z,100909.47
2022-08-08T16:46:46.370Z,100915.41
2022-08-08T16:48:49.677Z,100909.47
2022-08-08T16:50:51.391Z,100911.03
2022-08-08T16:55:05.353Z,100911.84
2022-08-08T16:55:42.893Z,100915.03
2022-08-08T16:58:15.817Z,100916.22
2022-08-08T16:59:58.890Z,100911.34
2022-08-08T17:02:00.614Z,100914.53
2022-08-08T17:04:05.438Z,100924.84
2022-08-08T17:06:37.526Z,100922.06
2022-08-08T17:08:29.625Z,100923.22
2022-08-08T17:10:31.279Z,100923.97
2022-08-08T17:12:33.582Z,100926.81
2022-08-08T17:14:38.355Z,100931.59
2022-08-08T17:16:40.467Z,100922.53
2022-08-08T17:18:53.263Z,100934.84
2022-08-08T17:20:57.575Z,100930.03
2022-08-08T17:23:16.354Z,100929.28
2022-08-08T17:25:20.937Z,100924.53
2022-08-08T17:27:47.223Z,100928.50
2022-08-08T17:29:56.565Z,100938.38
2022-08-08T17:31:59.298Z,100933.19
2022-08-08T17:34:48.249Z,100940.28
2022-08-08T17:36:30.880Z,100943.47
2022-08-08T17:38:33.575Z,100949.47
2022-08-08T17:40:35.812Z,100943.13
2022-08-08T17:42:41.089Z,100943.88
2022-08-08T17:44:49.032Z,100945.09
2022-08-08T17:46:52.880Z,100960.19
2022-08-08T17:48:54.966Z,100947.44
2022-08-08T17:50:57.562Z,100948.59
2022-08-08T17:53:00.867Z,100945.09
2022-08-08T17:55:05.719Z,100950.66
2022-08-08T17:57:24.905Z,100951.88
2022-08-08T17:59:36.085Z,100959.00
2022-08-08T18:01:55.506Z,100957.41
2022-08-08T18:03:57.855Z,100953.03
2022-08-08T18:05:59.422Z,100954.63
2022-08-08T18:08:38.200Z,100955.81
2022-08-08T18:10:31.031Z,100970.91
2022-08-08T18:12:33.331Z,100963.75
2022-08-08T18:14:35.854Z,100969.31
2022-08-08T18:16:41.284Z,100970.91
2022-08-08T18:18:52.486Z,100970.88
2022-08-08T18:20:59.549Z,100974.47
2022-08-08T18:23:02.990Z,100968.91
2022-08-08T18:25:05.576Z,100969.72
2022-08-08T18:27:17.257Z,100978.41
2022-08-08T18:29:25.408Z,100974.06
2022-08-08T18:31:32.049Z,100985.97
2022-08-08T18:34:10.805Z,100980.41
2022-08-08T18:36:03.025Z,100986.75
2022-08-08T18:38:16.706Z,100986.75
2022-08-08T18:40:19.180Z,100991.50
2022-08-08T18:42:36.642Z,100990.31
2022-08-08T18:44:56.014Z,100988.72
2022-08-08T18:46:59.324Z,100991.09
2022-08-08T18:49:00.994Z,100989.91
2022-08-08T18:51:03.220Z,100995.06
2022-08-08T18:53:06.236Z,100998.66
2022-08-08T18:55:11.464Z,101007.75
2022-08-08T18:57:13.291Z,101016.88
2022-08-08T18:59:14.977Z,101010.53
2022-08-08T19:02:25.540Z,101011.34
2022-08-08T19:04:01.387Z,101015.28
2022-08-08T19:06:00.352Z,101023.63
2022-08-08T19:08:25.783Z,101031.53
2022-08-08T19:10:30.263Z,101028.38
2022-08-08T19:12:31.977Z,101037.50
2022-08-08T19:14:36.955Z,101037.91
2022-08-08T19:16:38.931Z,101043.84
2022-08-08T19:18:51.356Z,101047.00
2022-08-08T19:20:59.402Z,101046.22
2022-08-08T19:23:01.236Z,101056.50
2022-08-08T19:25:59.902Z,101055.31
2022-08-08T19:27:56.900Z,101054.91
2022-08-08T19:29:50.034Z,101060.44
2022-08-08T19:31:52.060Z,101059.63
2022-08-08T19:34:29.487Z,101060.47
2022-08-08T19:36:17.991Z,101063.63
2022-08-08T19:38:29.686Z,101066.00
2022-08-08T19:40:33.410Z,101064.81
2022-08-08T19:42:35.574Z,101065.22
2022-08-08T19:44:46.420Z,101071.19
2022-08-08T19:46:54.545Z,101070.41
2022-08-08T19:48:58.669Z,101077.56
2022-08-08T19:51:01.386Z,101078.75
2022-08-08T19:53:03.411Z,101076.75
2022-08-08T19:55:23.905Z,101081.91
2022-08-08T19:57:32.693Z,101083.88
2022-08-08T19:59:38.439Z,101084.28
2022-08-08T20:01:59.830Z,101081.88
2022-08-08T20:04:03.700Z,101089.84
2022-08-08T20:06:13.400Z,101092.59
2022-08-08T20:08:29.341Z,101087.06
2022-08-08T20:10:33.434Z,101084.28
2022-08-08T20:12:38.276Z,101083.06
2022-08-08T20:14:42.227Z,101094.97
2022-08-08T20:16:53.368Z,101096.53
2022-08-08T20:18:55.091Z,101094.56
2022-08-08T20:20:56.973Z,101096.09
2022-08-08T20:22:59.361Z,101091.31
2022-08-08T20:25:07.897Z,101091.31
2022-08-08T20:27:09.937Z,101095.28
2022-08-08T20:29:23.182Z,101092.50
2022-08-08T20:31:46.938Z,101090.53
2022-08-08T20:34:27.823Z,101098.44
2022-08-08T20:36:16.607Z,101098.03
2022-08-08T20:38:19.199Z,101091.31
2022-08-08T20:40:38.949Z,101096.41
2022-08-08T20:42:41.037Z,101097.16
2022-08-08T20:44:47.260Z,101101.03
2022-08-08T20:46:51.555Z,101103.75
2022-08-08T20:48:54.738Z,101104.53
2022-08-08T20:51:00.098Z,101100.59
2022-08-08T20:53:02.535Z,101104.13
2022-08-08T20:55:16.453Z,101109.66
2022-08-08T20:57:27.806Z,101102.53
2022-08-08T20:59:29.750Z,101097.78
2022-08-08T21:01:33.512Z,101104.09
2022-08-08T21:03:59.813Z,101101.28
2022-08-08T21:06:03.262Z,101106.81
2022-08-08T21:08:37.011Z,101110.72
2022-08-08T21:10:30.630Z,101108.28
2022-08-08T21:12:34.889Z,101107.41
2022-08-08T21:14:36.567Z,101116.94
2022-08-08T21:16:39.603Z,101114.56
2022-08-08T21:18:41.388Z,101116.16
2022-08-08T21:20:43.033Z,101107.84
2022-08-08T21:22:52.364Z,101110.09
2022-08-08T21:24:54.720Z,101113.22
2022-08-08T21:26:57.234Z,101106.88
2022-08-08T21:29:00.597Z,101110.34
2022-08-08T21:31:21.669Z,101107.16
2022-08-08T21:33:26.393Z,101104.78
2022-08-08T21:36:19.127Z,101103.22
2022-08-08T21:37:53.520Z,101096.00
2022-08-08T21:39:57.351Z,101104.19
2022-08-08T21:42:01.861Z,101110.50
2022-08-08T21:44:04.034Z,101105.75
2022-08-08T21:48:02.027Z,101108.91
2022-08-08T21:48:41.306Z,101104.13
2022-08-08T21:50:46.146Z,101106.41
2022-08-08T21:54:33.580Z,101112.25
2022-08-08T21:56:18.475Z,101114.59
2022-08-08T21:57:42.860Z,101115.00
2022-08-08T22:00:02.691Z,101115.44
2022-08-08T22:02:06.277Z,101109.88
2022-08-08T22:04:13.868Z,101105.91
2022-08-08T22:06:31.235Z,101107.84
2022-08-08T22:08:36.946Z,101111.09
2022-08-08T22:10:43.658Z,101104.81
2022-08-08T22:12:47.052Z,101113.97
2022-08-08T22:14:50.045Z,101108.44
2022-08-08T22:16:54.196Z,101104.84
2022-08-08T22:18:55.836Z,101108.03
2022-08-08T22:21:01.612Z,101110.06
2022-08-08T22:23:12.881Z,101108.50
2022-08-08T22:25:24.549Z,101104.56
2022-08-08T22:27:55.980Z,101110.13
2022-08-08T22:30:01.699Z,101112.50
2022-08-08T22:32:05.677Z,101112.19
2022-08-08T22:34:13.117Z,101109.84
2022-08-08T22:36:19.967Z,101116.13
2022-08-08T22:38:35.919Z,101114.97
2022-08-08T22:40:37.656Z,101113.75
2022-08-08T22:42:40.524Z,101107.84
2022-08-08T22:44:42.564Z,101108.16
2022-08-08T22:46:45.945Z,101110.94
2022-08-08T22:48:48.043Z,101110.13
2022-08-08T22:50:51.044Z,101104.59
2022-08-08T22:54:19.552Z,101106.97
2022-08-08T22:55:16.627Z,101113.19
2022-08-08T22:57:22.806Z,101107.66
2022-08-08T22:59:24.397Z,101112.81
2022-08-08T23:02:01.678Z,101105.97
2022-08-08T23:03:53.648Z,101113.78
2022-08-08T23:05:56.636Z,101118.88
2022-08-08T23:08:03.628Z,101115.63
2022-08-08T23:10:08.919Z,101112.34
2022-08-08T23:12:28.328Z,101115.53
2022-08-08T23:14:32.915Z,101118.59
2022-08-08T23:16:39.286Z,101120.94
2022-08-08T23:18:44.425Z,101118.09
2022-08-08T23:20:54.931Z,101117.91
2022-08-08T23:22:56.743Z,101117.06
2022-08-08T23:24:59.687Z,101119.50
2022-08-08T23:27:01.405Z,101119.78
2022-08-08T23:29:03.005Z,101117.25
2022-08-08T23:31:07.899Z,101121.97
2022-08-08T23:33:19.008Z,101118.53
2022-08-08T23:35:23.101Z,101121.34
2022-08-08T23:37:26.368Z,101119.78
2022-08-08T23:39:55.093Z,101119.50
2022-08-08T23:42:01.718Z,101127.50
2022-08-08T23:44:04.509Z,101118.38
2022-08-08T23:49:01.625Z,101109.66
2022-08-08T23:49:04.763Z,101116.75
2022-08-08T23:50:56.975Z,101115.50
2022-08-08T23:52:59.084Z,101121.38
2022-08-08T23:55:13.963Z,101117.78
2022-08-08T23:57:26.639Z,101117.41
2022-08-08T23:59:29.593Z,101118.31
